sensor_id;sensor_type;location;lat;lon;timestamp;P1;durP1;ratioP1;P2;durP2;ratioP2
35239;SDS011;21376;50.954;4.716;2023-04-03T00:15:07;42.03;;;21.63;;
35239;SDS011;21376;50.954;4.716;2023-04-03T00:17:35;47.50;;;21.40;;
35239;SDS011;21376;50.954;4.716;2023-04-03T00:20:02;40.25;;;21.55;;
35239;SDS011;21376;50.954;4.716;2023-04-03T00:22:31;35.92;;;21.10;;
35239;SDS011;21376;50.954;4.716;2023-04-03T00:24:57;36.95;;;21.38;;
35239;SDS011;21376;50.954;4.716;2023-04-03T00:27:23;39.25;;;22.15;;
35239;SDS011;21376;50.954;4.716;2023-04-03T00:29:48;40.58;;;22.52;;
35239;SDS011;21376;50.954;4.716;2023-04-03T00:32:16;68.60;;;24.75;;
35239;SDS011;21376;50.954;4.716;2023-04-03T00:39:51;40.15;;;21.95;;
35239;SDS011;21376;50.954;4.716;2023-04-03T00:47:39;32.90;;;20.33;;
35239;SDS011;21376;50.954;4.716;2023-04-03T00:50:12;45.63;;;21.52;;
35239;SDS011;21376;50.954;4.716;2023-04-03T00:52:41;38.08;;;20.65;;
35239;SDS011;21376;50.954;4.716;2023-04-03T00:55:14;36.00;;;21.02;;
35239;SDS011;21376;50.954;4.716;2023-04-03T01:03:05;39.70;;;19.88;;
35239;SDS011;21376;50.954;4.716;2023-04-03T01:12:21;36.15;;;18.80;;
35239;SDS011;21376;50.954;4.716;2023-04-03T01:17:48;46.47;;;21.80;;
35239;SDS011;21376;50.954;4.716;2023-04-03T01:23:20;42.83;;;20.83;;
35239;SDS011;21376;50.954;4.716;2023-04-03T01:36:21;37.08;;;19.00;;
35239;SDS011;21376;50.954;4.716;2023-04-03T01:41:31;40.85;;;19.77;;
35239;SDS011;21376;50.954;4.716;2023-04-03T01:44:00;38.65;;;19.10;;
35239;SDS011;21376;50.954;4.716;2023-04-03T01:46:26;40.63;;;19.75;;
35239;SDS011;21376;50.954;4.716;2023-04-03T01:48:52;40.70;;;19.35;;
35239;SDS011;21376;50.954;4.716;2023-04-03T01:56:35;34.33;;;17.58;;
35239;SDS011;21376;50.954;4.716;2023-04-03T01:59:01;32.03;;;17.25;;
35239;SDS011;21376;50.954;4.716;2023-04-03T02:04:00;36.97;;;17.70;;
35239;SDS011;21376;50.954;4.716;2023-04-03T02:08:57;29.75;;;16.27;;
35239;SDS011;21376;50.954;4.716;2023-04-03T02:13:54;24.67;;;15.18;;
35239;SDS011;21376;50.954;4.716;2023-04-03T02:16:29;29.52;;;16.35;;
35239;SDS011;21376;50.954;4.716;2023-04-03T02:22:07;33.42;;;16.25;;
35239;SDS011;21376;50.954;4.716;2023-04-03T02:27:05;38.03;;;15.52;;
35239;SDS011;21376;50.954;4.716;2023-04-03T02:29:32;31.88;;;16.42;;
35239;SDS011;21376;50.954;4.716;2023-04-03T02:31:58;32.95;;;16.42;;
35239;SDS011;21376;50.954;4.716;2023-04-03T02:37:22;30.17;;;15.68;;
35239;SDS011;21376;50.954;4.716;2023-04-03T02:39:51;30.17;;;16.13;;
35239;SDS011;21376;50.954;4.716;2023-04-03T02:42:30;43.17;;;17.38;;
35239;SDS011;21376;50.954;4.716;2023-04-03T02:45:03;29.85;;;17.00;;
35239;SDS011;21376;50.954;4.716;2023-04-03T02:47:32;33.70;;;17.25;;
35239;SDS011;21376;50.954;4.716;2023-04-03T02:50:01;33.75;;;17.63;;
35239;SDS011;21376;50.954;4.716;2023-04-03T02:52:34;32.80;;;18.20;;
35239;SDS011;21376;50.954;4.716;2023-04-03T02:55:03;30.27;;;16.17;;
35239;SDS011;21376;50.954;4.716;2023-04-03T02:57:29;30.25;;;15.98;;
35239;SDS011;21376;50.954;4.716;2023-04-03T02:59:55;27.55;;;15.32;;
35239;SDS011;21376;50.954;4.716;2023-04-03T03:02:22;27.73;;;15.88;;
35239;SDS011;21376;50.954;4.716;2023-04-03T03:04:50;33.80;;;16.73;;
35239;SDS011;21376;50.954;4.716;2023-04-03T03:07:17;30.83;;;17.27;;
35239;SDS011;21376;50.954;4.716;2023-04-03T03:09:46;31.17;;;17.45;;
35239;SDS011;21376;50.954;4.716;2023-04-03T03:14:44;31.23;;;18.00;;
35239;SDS011;21376;50.954;4.716;2023-04-03T03:19:38;79.72;;;20.83;;
35239;SDS011;21376;50.954;4.716;2023-04-03T03:24:53;44.22;;;17.98;;
35239;SDS011;21376;50.954;4.716;2023-04-03T03:27:22;35.45;;;18.42;;
35239;SDS011;21376;50.954;4.716;2023-04-03T03:29:52;43.08;;;20.35;;
35239;SDS011;21376;50.954;4.716;2023-04-03T03:32:21;35.60;;;19.38;;
35239;SDS011;21376;50.954;4.716;2023-04-03T03:34:50;37.53;;;18.50;;
35239;SDS011;21376;50.954;4.716;2023-04-03T03:37:22;34.25;;;18.45;;
35239;SDS011;21376;50.954;4.716;2023-04-03T03:39:48;36.45;;;18.77;;
35239;SDS011;21376;50.954;4.716;2023-04-03T03:45:32;39.28;;;18.23;;
35239;SDS011;21376;50.954;4.716;2023-04-03T03:48:04;37.22;;;19.08;;
35239;SDS011;21376;50.954;4.716;2023-04-03T03:50:33;40.83;;;19.90;;
35239;SDS011;21376;50.954;4.716;2023-04-03T03:53:00;42.72;;;18.52;;
35239;SDS011;21376;50.954;4.716;2023-04-03T03:55:29;40.72;;;18.63;;
35239;SDS011;21376;50.954;4.716;2023-04-03T03:57:58;35.00;;;19.42;;
35239;SDS011;21376;50.954;4.716;2023-04-03T04:00:27;43.42;;;19.73;;
35239;SDS011;21376;50.954;4.716;2023-04-03T04:02:56;30.65;;;17.33;;
35239;SDS011;21376;50.954;4.716;2023-04-03T04:13:42;28.38;;;16.98;;
35239;SDS011;21376;50.954;4.716;2023-04-03T04:19:04;39.80;;;18.77;;
35239;SDS011;21376;50.954;4.716;2023-04-03T04:21:33;33.88;;;18.73;;
35239;SDS011;21376;50.954;4.716;2023-04-03T04:24:02;128.48;;;21.17;;
35239;SDS011;21376;50.954;4.716;2023-04-03T04:26:28;56.67;;;19.92;;
35239;SDS011;21376;50.954;4.716;2023-04-03T04:31:23;61.70;;;20.10;;
35239;SDS011;21376;50.954;4.716;2023-04-03T04:36:21;47.50;;;20.13;;
35239;SDS011;21376;50.954;4.716;2023-04-03T04:38:48;47.10;;;20.23;;
35239;SDS011;21376;50.954;4.716;2023-04-03T04:41:38;37.28;;;18.85;;
35239;SDS011;21376;50.954;4.716;2023-04-03T04:46:59;37.75;;;18.20;;
35239;SDS011;21376;50.954;4.716;2023-04-03T04:52:08;48.10;;;22.23;;
35239;SDS011;21376;50.954;4.716;2023-04-03T04:57:53;46.05;;;20.80;;
35239;SDS011;21376;50.954;4.716;2023-04-03T05:00:24;59.60;;;21.55;;
35239;SDS011;21376;50.954;4.716;2023-04-03T05:02:53;49.67;;;23.40;;
35239;SDS011;21376;50.954;4.716;2023-04-03T05:05:19;48.20;;;22.83;;
35239;SDS011;21376;50.954;4.716;2023-04-03T05:07:48;48.90;;;23.13;;
35239;SDS011;21376;50.954;4.716;2023-04-03T05:10:31;50.42;;;21.65;;
35239;SDS011;21376;50.954;4.716;2023-04-03T05:13:00;54.25;;;21.90;;
35239;SDS011;21376;50.954;4.716;2023-04-03T05:15:32;45.53;;;21.50;;
35239;SDS011;21376;50.954;4.716;2023-04-03T05:18:12;53.08;;;22.88;;
35239;SDS011;21376;50.954;4.716;2023-04-03T05:23:09;49.33;;;23.63;;
35239;SDS011;21376;50.954;4.716;2023-04-03T05:28:06;48.97;;;22.23;;
35239;SDS011;21376;50.954;4.716;2023-04-03T05:33:04;50.72;;;23.85;;
35239;SDS011;21376;50.954;4.716;2023-04-03T05:35:31;41.63;;;21.33;;
35239;SDS011;21376;50.954;4.716;2023-04-03T05:38:01;50.85;;;22.63;;
35239;SDS011;21376;50.954;4.716;2023-04-03T05:42:57;46.97;;;21.73;;
35239;SDS011;21376;50.954;4.716;2023-04-03T05:45:29;94.05;;;24.90;;
35239;SDS011;21376;50.954;4.716;2023-04-03T05:47:58;49.50;;;22.02;;
35239;SDS011;21376;50.954;4.716;2023-04-03T05:50:24;52.13;;;23.30;;
35239;SDS011;21376;50.954;4.716;2023-04-03T05:52:50;53.63;;;23.98;;
35239;SDS011;21376;50.954;4.716;2023-04-03T05:55:19;50.55;;;24.20;;
35239;SDS011;21376;50.954;4.716;2023-04-03T05:57:54;56.92;;;26.15;;
35239;SDS011;21376;50.954;4.716;2023-04-03T06:00:23;44.75;;;23.40;;
35239;SDS011;21376;50.954;4.716;2023-04-03T06:02:52;61.60;;;26.42;;
35239;SDS011;21376;50.954;4.716;2023-04-03T06:05:20;64.32;;;28.55;;
35239;SDS011;21376;50.954;4.716;2023-04-03T06:07:53;61.13;;;28.15;;
35239;SDS011;21376;50.954;4.716;2023-04-03T06:10:37;59.45;;;27.70;;
35239;SDS011;21376;50.954;4.716;2023-04-03T06:13:03;65.32;;;30.38;;
35239;SDS011;21376;50.954;4.716;2023-04-03T06:22:00;69.35;;;32.20;;
35239;SDS011;21376;50.954;4.716;2023-04-03T06:27:12;76.22;;;33.80;;
35239;SDS011;21376;50.954;4.716;2023-04-03T06:32:10;67.95;;;33.95;;
35239;SDS011;21376;50.954;4.716;2023-04-03T06:42:57;83.32;;;37.20;;
35239;SDS011;21376;50.954;4.716;2023-04-03T06:45:26;68.40;;;35.17;;
35239;SDS011;21376;50.954;4.716;2023-04-03T06:50:53;64.55;;;33.25;;
35239;SDS011;21376;50.954;4.716;2023-04-03T06:53:34;56.33;;;32.75;;
35239;SDS011;21376;50.954;4.716;2023-04-03T06:56:00;55.42;;;31.50;;
35239;SDS011;21376;50.954;4.716;2023-04-03T06:58:29;58.28;;;34.70;;
35239;SDS011;21376;50.954;4.716;2023-04-03T07:06:17;32.97;;;23.67;;
35239;SDS011;21376;50.954;4.716;2023-04-03T07:08:57;26.08;;;15.93;;
35239;SDS011;21376;50.954;4.716;2023-04-03T07:11:26;18.92;;;12.90;;
35239;SDS011;21376;50.954;4.716;2023-04-03T07:18:46;10.65;;;8.40;;
35239;SDS011;21376;50.954;4.716;2023-04-03T07:21:17;13.15;;;8.50;;
35239;SDS011;21376;50.954;4.716;2023-04-03T07:23:46;12.60;;;7.57;;
35239;SDS011;21376;50.954;4.716;2023-04-03T07:26:18;13.88;;;7.50;;
35239;SDS011;21376;50.954;4.716;2023-04-03T07:31:39;15.75;;;6.90;;
35239;SDS011;21376;50.954;4.716;2023-04-03T07:34:09;11.27;;;6.97;;
35239;SDS011;21376;50.954;4.716;2023-04-03T07:36:50;10.13;;;6.80;;
35239;SDS011;21376;50.954;4.716;2023-04-03T07:39:19;10.65;;;6.55;;
35239;SDS011;21376;50.954;4.716;2023-04-03T07:41:48;10.13;;;6.18;;
35239;SDS011;21376;50.954;4.716;2023-04-03T07:49:45;10.27;;;5.40;;
35239;SDS011;21376;50.954;4.716;2023-04-03T07:54:42;6.70;;;4.97;;
35239;SDS011;21376;50.954;4.716;2023-04-03T07:57:08;9.50;;;5.30;;
35239;SDS011;21376;50.954;4.716;2023-04-03T07:59:37;10.52;;;6.13;;
35239;SDS011;21376;50.954;4.716;2023-04-03T08:04:40;8.95;;;5.28;;
35239;SDS011;21376;50.954;4.716;2023-04-03T08:07:09;7.47;;;4.70;;
35239;SDS011;21376;50.954;4.716;2023-04-03T08:09:38;8.18;;;4.78;;
35239;SDS011;21376;50.954;4.716;2023-04-03T08:12:07;10.55;;;5.32;;
35239;SDS011;21376;50.954;4.716;2023-04-03T08:14:36;8.05;;;4.72;;
35239;SDS011;21376;50.954;4.716;2023-04-03T08:31:36;7.80;;;3.45;;
35239;SDS011;21376;50.954;4.716;2023-04-03T08:34:06;6.07;;;3.47;;
35239;SDS011;21376;50.954;4.716;2023-04-03T08:36:34;8.05;;;3.55;;
35239;SDS011;21376;50.954;4.716;2023-04-03T08:39:04;6.45;;;3.63;;
35239;SDS011;21376;50.954;4.716;2023-04-03T08:41:40;8.18;;;3.17;;
35239;SDS011;21376;50.954;4.716;2023-04-03T08:53:22;7.63;;;3.35;;
35239;SDS011;21376;50.954;4.716;2023-04-03T08:55:57;5.03;;;3.00;;
35239;SDS011;21376;50.954;4.716;2023-04-03T08:58:26;5.15;;;3.00;;
35239;SDS011;21376;50.954;4.716;2023-04-03T09:01:05;4.28;;;2.75;;
35239;SDS011;21376;50.954;4.716;2023-04-03T09:03:39;6.70;;;3.00;;
35239;SDS011;21376;50.954;4.716;2023-04-03T09:26:25;5.65;;;2.70;;
35239;SDS011;21376;50.954;4.716;2023-04-03T09:29:00;6.32;;;2.50;;
35239;SDS011;21376;50.954;4.716;2023-04-03T09:31:38;5.00;;;2.80;;
35239;SDS011;21376;50.954;4.716;2023-04-03T09:34:25;4.57;;;2.90;;
35239;SDS011;21376;50.954;4.716;2023-04-03T09:36:56;8.57;;;2.67;;
35239;SDS011;21376;50.954;4.716;2023-04-03T09:39:28;4.57;;;2.72;;
35239;SDS011;21376;50.954;4.716;2023-04-03T09:41:59;6.80;;;3.03;;
35239;SDS011;21376;50.954;4.716;2023-04-03T09:44:38;5.07;;;2.70;;
35239;SDS011;21376;50.954;4.716;2023-04-03T10:03:27;7.88;;;2.83;;
35239;SDS011;21376;50.954;4.716;2023-04-03T10:06:03;4.72;;;2.83;;
35239;SDS011;21376;50.954;4.716;2023-04-03T10:14:16;7.05;;;2.60;;
35239;SDS011;21376;50.954;4.716;2023-04-03T10:26:28;5.68;;;2.75;;
35239;SDS011;21376;50.954;4.716;2023-04-03T10:31:54;4.72;;;2.38;;
35239;SDS011;21376;50.954;4.716;2023-04-03T10:34:39;8.63;;;2.80;;
35239;SDS011;21376;50.954;4.716;2023-04-03T10:37:18;9.13;;;2.63;;
35239;SDS011;21376;50.954;4.716;2023-04-03T10:54:44;5.93;;;1.70;;
35239;SDS011;21376;50.954;4.716;2023-04-03T10:57:17;4.45;;;2.00;;
35239;SDS011;21376;50.954;4.716;2023-04-03T10:59:53;4.57;;;1.90;;
35239;SDS011;21376;50.954;4.716;2023-04-03T11:05:29;5.75;;;2.40;;
35239;SDS011;21376;50.954;4.716;2023-04-03T11:25:14;6.30;;;1.65;;
35239;SDS011;21376;50.954;4.716;2023-04-03T11:37:21;3.55;;;1.52;;
35239;SDS011;21376;50.954;4.716;2023-04-03T11:39:57;4.65;;;1.85;;
35239;SDS011;21376;50.954;4.716;2023-04-03T11:42:37;3.92;;;1.60;;
35239;SDS011;21376;50.954;4.716;2023-04-03T12:11:36;2.67;;;1.70;;
35239;SDS011;21376;50.954;4.716;2023-04-03T12:14:05;4.15;;;1.80;;
35239;SDS011;21376;50.954;4.716;2023-04-03T12:16:55;2.50;;;1.30;;
35239;SDS011;21376;50.954;4.716;2023-04-03T12:19:36;4.65;;;1.70;;
35239;SDS011;21376;50.954;4.716;2023-04-03T12:22:09;3.22;;;1.58;;
35239;SDS011;21376;50.954;4.716;2023-04-03T12:24:38;2.83;;;1.27;;
35239;SDS011;21376;50.954;4.716;2023-04-03T12:32:51;2.42;;;1.50;;
35239;SDS011;21376;50.954;4.716;2023-04-03T12:41:23;3.75;;;1.63;;
35239;SDS011;21376;50.954;4.716;2023-04-03T12:47:15;4.32;;;1.77;;
35239;SDS011;21376;50.954;4.716;2023-04-03T12:50:04;2.92;;;1.80;;
35239;SDS011;21376;50.954;4.716;2023-04-03T12:53:51;6.60;;;2.03;;
35239;SDS011;21376;50.954;4.716;2023-04-03T13:01:25;5.40;;;2.47;;
35239;SDS011;21376;50.954;4.716;2023-04-03T13:03:57;2.38;;;1.75;;
35239;SDS011;21376;50.954;4.716;2023-04-03T13:06:42;6.80;;;2.53;;
35239;SDS011;21376;50.954;4.716;2023-04-03T13:09:25;5.07;;;1.77;;
35239;SDS011;21376;50.954;4.716;2023-04-03T13:14:28;3.75;;;1.88;;
35239;SDS011;21376;50.954;4.716;2023-04-03T13:26:27;3.90;;;1.90;;
35239;SDS011;21376;50.954;4.716;2023-04-03T13:29:17;3.15;;;1.70;;
35239;SDS011;21376;50.954;4.716;2023-04-03T13:31:54;3.88;;;1.75;;
35239;SDS011;21376;50.954;4.716;2023-04-03T13:34:24;2.30;;;1.65;;
35239;SDS011;21376;50.954;4.716;2023-04-03T13:36:57;5.57;;;1.90;;
35239;SDS011;21376;50.954;4.716;2023-04-03T13:48:44;3.15;;;1.85;;
35239;SDS011;21376;50.954;4.716;2023-04-03T13:51:20;5.38;;;1.95;;
35239;SDS011;21376;50.954;4.716;2023-04-03T13:53:57;3.58;;;1.98;;
35239;SDS011;21376;50.954;4.716;2023-04-03T13:56:37;3.63;;;1.60;;
35239;SDS011;21376;50.954;4.716;2023-04-03T14:01:53;4.60;;;2.03;;
35239;SDS011;21376;50.954;4.716;2023-04-03T14:07:33;4.85;;;1.88;;
35239;SDS011;21376;50.954;4.716;2023-04-03T14:17:55;7.57;;;1.70;;
35239;SDS011;21376;50.954;4.716;2023-04-03T14:20:25;7.30;;;1.63;;
35239;SDS011;21376;50.954;4.716;2023-04-03T14:22:55;2.80;;;1.83;;
35239;SDS011;21376;50.954;4.716;2023-04-03T14:25:24;4.63;;;1.75;;
35239;SDS011;21376;50.954;4.716;2023-04-03T14:28:00;5.18;;;1.83;;
35239;SDS011;21376;50.954;4.716;2023-04-03T14:30:37;3.03;;;1.88;;
35239;SDS011;21376;50.954;4.716;2023-04-03T14:35:38;5.35;;;2.13;;
35239;SDS011;21376;50.954;4.716;2023-04-03T14:38:05;3.50;;;1.80;;
35239;SDS011;21376;50.954;4.716;2023-04-03T14:40:57;3.72;;;1.50;;
35239;SDS011;21376;50.954;4.716;2023-04-03T14:43:25;2.75;;;1.60;;
35239;SDS011;21376;50.954;4.716;2023-04-03T14:45:51;2.25;;;1.70;;
35239;SDS011;21376;50.954;4.716;2023-04-03T14:48:22;4.47;;;1.73;;
35239;SDS011;21376;50.954;4.716;2023-04-03T14:51:03;4.45;;;2.28;;
35239;SDS011;21376;50.954;4.716;2023-04-03T14:53:30;6.07;;;1.75;;
35239;SDS011;21376;50.954;4.716;2023-04-03T14:56:00;2.35;;;1.50;;
35239;SDS011;21376;50.954;4.716;2023-04-03T14:58:29;4.47;;;1.58;;
35239;SDS011;21376;50.954;4.716;2023-04-03T15:04:09;4.18;;;1.95;;
35239;SDS011;21376;50.954;4.716;2023-04-03T15:06:40;3.70;;;1.77;;
35239;SDS011;21376;50.954;4.716;2023-04-03T15:09:17;5.90;;;2.10;;
35239;SDS011;21376;50.954;4.716;2023-04-03T15:12:01;3.78;;;1.85;;
35239;SDS011;21376;50.954;4.716;2023-04-03T15:14:35;3.08;;;1.70;;
35239;SDS011;21376;50.954;4.716;2023-04-03T15:17:04;5.35;;;1.92;;
35239;SDS011;21376;50.954;4.716;2023-04-03T15:19:38;6.90;;;2.38;;
35239;SDS011;21376;50.954;4.716;2023-04-03T15:22:06;5.18;;;1.98;;
35239;SDS011;21376;50.954;4.716;2023-04-03T15:24:40;4.60;;;2.20;;
35239;SDS011;21376;50.954;4.716;2023-04-03T15:27:15;5.22;;;1.92;;
35239;SDS011;21376;50.954;4.716;2023-04-03T15:29:43;4.63;;;1.70;;
35239;SDS011;21376;50.954;4.716;2023-04-03T15:32:11;11.48;;;2.42;;
35239;SDS011;21376;50.954;4.716;2023-04-03T15:34:44;4.93;;;2.10;;
35239;SDS011;21376;50.954;4.716;2023-04-03T15:37:20;6.10;;;2.35;;
35239;SDS011;21376;50.954;4.716;2023-04-03T15:39:48;3.92;;;1.73;;
35239;SDS011;21376;50.954;4.716;2023-04-03T15:44:58;3.88;;;2.00;;
35239;SDS011;21376;50.954;4.716;2023-04-03T15:47:30;5.10;;;2.33;;
35239;SDS011;21376;50.954;4.716;2023-04-03T15:49:57;4.53;;;2.20;;
35239;SDS011;21376;50.954;4.716;2023-04-03T15:52:35;6.97;;;2.38;;
35239;SDS011;21376;50.954;4.716;2023-04-03T15:58:22;4.95;;;2.40;;
35239;SDS011;21376;50.954;4.716;2023-04-03T16:00:49;6.35;;;2.47;;
35239;SDS011;21376;50.954;4.716;2023-04-03T16:03:16;6.13;;;2.50;;
35239;SDS011;21376;50.954;4.716;2023-04-03T16:05:45;5.35;;;2.40;;
35239;SDS011;21376;50.954;4.716;2023-04-03T16:08:12;6.90;;;2.50;;
35239;SDS011;21376;50.954;4.716;2023-04-03T17:04:54;5.70;;;2.70;;
35239;SDS011;21376;50.954;4.716;2023-04-03T17:10:11;6.30;;;2.40;;
35239;SDS011;21376;50.954;4.716;2023-04-03T17:12:41;8.65;;;2.78;;
35239;SDS011;21376;50.954;4.716;2023-04-03T17:15:09;6.32;;;2.97;;
35239;SDS011;21376;50.954;4.716;2023-04-03T17:17:38;6.30;;;3.35;;
35239;SDS011;21376;50.954;4.716;2023-04-03T17:20:10;5.60;;;2.20;;
35239;SDS011;21376;50.954;4.716;2023-04-03T17:22:36;5.43;;;2.40;;
35239;SDS011;21376;50.954;4.716;2023-04-03T17:28:09;5.10;;;2.35;;
35239;SDS011;21376;50.954;4.716;2023-04-03T17:30:44;7.55;;;2.45;;
35239;SDS011;21376;50.954;4.716;2023-04-03T17:36:11;4.97;;;1.90;;
35239;SDS011;21376;50.954;4.716;2023-04-03T17:38:38;6.88;;;2.70;;
35239;SDS011;21376;50.954;4.716;2023-04-03T17:46:23;4.25;;;2.65;;
35239;SDS011;21376;50.954;4.716;2023-04-03T17:51:45;6.93;;;2.30;;
35239;SDS011;21376;50.954;4.716;2023-04-03T17:54:29;4.93;;;2.40;;
35239;SDS011;21376;50.954;4.716;2023-04-03T17:57:09;4.28;;;2.05;;
35239;SDS011;21376;50.954;4.716;2023-04-03T18:16:14;7.57;;;2.22;;
35239;SDS011;21376;50.954;4.716;2023-04-03T18:21:31;6.00;;;2.40;;
35239;SDS011;21376;50.954;4.716;2023-04-03T18:24:01;4.32;;;2.60;;
35239;SDS011;21376;50.954;4.716;2023-04-03T18:26:30;7.80;;;2.38;;
35239;SDS011;21376;50.954;4.716;2023-04-03T18:31:52;6.53;;;2.92;;
35239;SDS011;21376;50.954;4.716;2023-04-03T18:34:22;8.25;;;2.63;;
35239;SDS011;21376;50.954;4.716;2023-04-03T18:36:51;7.38;;;2.40;;
35239;SDS011;21376;50.954;4.716;2023-04-03T18:45:03;7.60;;;3.85;;
35239;SDS011;21376;50.954;4.716;2023-04-03T18:47:34;6.85;;;2.53;;
35239;SDS011;21376;50.954;4.716;2023-04-03T18:56:21;6.47;;;2.55;;
35239;SDS011;21376;50.954;4.716;2023-04-03T18:58:47;4.85;;;2.38;;
35239;SDS011;21376;50.954;4.716;2023-04-03T19:01:13;9.18;;;2.50;;
35239;SDS011;21376;50.954;4.716;2023-04-03T19:03:41;7.13;;;2.72;;
35239;SDS011;21376;50.954;4.716;2023-04-03T19:06:08;10.63;;;3.53;;
35239;SDS011;21376;50.954;4.716;2023-04-03T19:08:37;6.75;;;2.58;;
35239;SDS011;21376;50.954;4.716;2023-04-03T19:16:36;10.57;;;2.72;;
35239;SDS011;21376;50.954;4.716;2023-04-03T19:19:02;14.90;;;4.85;;
35239;SDS011;21376;50.954;4.716;2023-04-03T19:23:59;9.07;;;4.15;;
35239;SDS011;21376;50.954;4.716;2023-04-03T19:26:28;7.78;;;3.30;;
35239;SDS011;21376;50.954;4.716;2023-04-03T19:31:31;4.15;;;2.53;;
35239;SDS011;21376;50.954;4.716;2023-04-03T19:33:58;10.05;;;3.53;;
35239;SDS011;21376;50.954;4.716;2023-04-03T19:36:26;7.53;;;2.75;;
35239;SDS011;21376;50.954;4.716;2023-04-03T19:38:52;6.13;;;2.60;;
35239;SDS011;21376;50.954;4.716;2023-04-03T19:41:20;7.53;;;2.83;;
35239;SDS011;21376;50.954;4.716;2023-04-03T19:43:58;4.88;;;2.42;;
35239;SDS011;21376;50.954;4.716;2023-04-03T19:49:11;7.25;;;2.42;;
35239;SDS011;21376;50.954;4.716;2023-04-03T19:54:12;6.60;;;2.63;;
35239;SDS011;21376;50.954;4.716;2023-04-03T19:56:41;7.75;;;2.90;;
35239;SDS011;21376;50.954;4.716;2023-04-03T19:59:11;9.57;;;3.70;;
35239;SDS011;21376;50.954;4.716;2023-04-03T20:01:46;6.43;;;2.90;;
35239;SDS011;21376;50.954;4.716;2023-04-03T20:06:42;8.60;;;2.97;;
35239;SDS011;21376;50.954;4.716;2023-04-03T20:11:38;5.20;;;2.40;;
35239;SDS011;21376;50.954;4.716;2023-04-03T20:14:06;7.38;;;2.83;;
35239;SDS011;21376;50.954;4.716;2023-04-03T20:16:34;7.93;;;3.33;;
35239;SDS011;21376;50.954;4.716;2023-04-03T20:22:00;9.07;;;2.85;;
35239;SDS011;21376;50.954;4.716;2023-04-03T20:24:29;8.40;;;3.88;;
35239;SDS011;21376;50.954;4.716;2023-04-03T20:27:00;5.55;;;2.65;;
35239;SDS011;21376;50.954;4.716;2023-04-03T20:29:41;5.60;;;2.80;;
35239;SDS011;21376;50.954;4.716;2023-04-03T20:32:08;6.15;;;2.55;;
35239;SDS011;21376;50.954;4.716;2023-04-03T20:41:38;12.45;;;3.92;;
35239;SDS011;21376;50.954;4.716;2023-04-03T21:00:16;6.40;;;3.05;;
35239;SDS011;21376;50.954;4.716;2023-04-03T21:24:03;7.53;;;2.83;;
35239;SDS011;21376;50.954;4.716;2023-04-03T21:26:32;8.07;;;3.40;;
35239;SDS011;21376;50.954;4.716;2023-04-03T21:29:06;8.65;;;3.22;;
35239;SDS011;21376;50.954;4.716;2023-04-03T21:35:12;7.18;;;2.50;;
35239;SDS011;21376;50.954;4.716;2023-04-03T21:37:41;6.22;;;2.97;;
35239;SDS011;21376;50.954;4.716;2023-04-03T21:40:10;4.78;;;2.85;;
35239;SDS011;21376;50.954;4.716;2023-04-03T21:48:01;7.03;;;3.00;;
35239;SDS011;21376;50.954;4.716;2023-04-03T21:53:08;9.40;;;3.30;;
35239;SDS011;21376;50.954;4.716;2023-04-03T22:03:45;3.95;;;2.60;;
35239;SDS011;21376;50.954;4.716;2023-04-03T22:06:12;7.93;;;2.72;;
35239;SDS011;21376;50.954;4.716;2023-04-03T22:08:41;10.30;;;2.55;;
35239;SDS011;21376;50.954;4.716;2023-04-03T22:16:09;6.15;;;2.60;;
35239;SDS011;21376;50.954;4.716;2023-04-03T22:18:38;16.02;;;3.28;;
35239;SDS011;21376;50.954;4.716;2023-04-03T22:21:12;9.23;;;3.17;;
35239;SDS011;21376;50.954;4.716;2023-04-03T22:23:41;9.35;;;2.85;;
35239;SDS011;21376;50.954;4.716;2023-04-03T22:28:40;5.25;;;2.75;;
35239;SDS011;21376;50.954;4.716;2023-04-03T22:36:31;6.70;;;2.72;;
35239;SDS011;21376;50.954;4.716;2023-04-03T22:39:00;9.68;;;2.83;;
35239;SDS011;21376;50.954;4.716;2023-04-03T22:41:26;9.43;;;3.45;;
35239;SDS011;21376;50.954;4.716;2023-04-03T22:43:55;5.20;;;3.17;;
35239;SDS011;21376;50.954;4.716;2023-04-03T22:48:53;10.73;;;3.10;;
35239;SDS011;21376;50.954;4.716;2023-04-03T22:51:22;7.70;;;3.20;;
35239;SDS011;21376;50.954;4.716;2023-04-03T22:53:51;11.75;;;3.00;;
35239;SDS011;21376;50.954;4.716;2023-04-03T22:56:19;3.75;;;2.65;;
35239;SDS011;21376;50.954;4.716;2023-04-03T22:58:49;4.18;;;2.70;;
35239;SDS011;21376;50.954;4.716;2023-04-03T23:01:16;11.82;;;3.10;;
35239;SDS011;21376;50.954;4.716;2023-04-03T23:03:45;7.85;;;3.17;;
35239;SDS011;21376;50.954;4.716;2023-04-03T23:06:14;4.57;;;2.58;;
35239;SDS011;21376;50.954;4.716;2023-04-03T23:08:49;6.00;;;2.78;;
35239;SDS011;21376;50.954;4.716;2023-04-03T23:11:24;6.18;;;2.85;;
35239;SDS011;21376;50.954;4.716;2023-04-03T23:13:59;8.93;;;2.55;;
35239;SDS011;21376;50.954;4.716;2023-04-03T23:16:27;7.28;;;2.70;;
35239;SDS011;21376;50.954;4.716;2023-04-03T23:19:08;6.28;;;2.90;;
35239;SDS011;21376;50.954;4.716;2023-04-03T23:21:35;7.57;;;2.70;;
35239;SDS011;21376;50.954;4.716;2023-04-03T23:24:05;6.05;;;2.63;;
35239;SDS011;21376;50.954;4.716;2023-04-03T23:29:04;6.07;;;2.72;;
35239;SDS011;21376;50.954;4.716;2023-04-03T23:36:31;6.05;;;2.90;;
35239;SDS011;21376;50.954;4.716;2023-04-03T23:39:14;5.28;;;3.17;;
35239;SDS011;21376;50.954;4.716;2023-04-03T23:41:44;7.70;;;2.83;;
35239;SDS011;21376;50.954;4.716;2023-04-03T23:44:13;6.45;;;2.78;;
35239;SDS011;21376;50.954;4.716;2023-04-03T23:46:40;6.38;;;2.63;;
35239;SDS011;21376;50.954;4.716;2023-04-03T23:49:08;5.40;;;2.95;;
35239;SDS011;21376;50.954;4.716;2023-04-03T23:51:38;6.35;;;3.03;;
35239;SDS011;21376;50.954;4.716;2023-04-03T23:54:10;12.32;;;2.85;;
35239;SDS011;21376;50.954;4.716;2023-04-03T23:56:39;10.27;;;3.07;;
35239;SDS011;21376;50.954;4.716;2023-04-03T23:59:15;8.05;;;2.90;;
